Time;durP1;ratioP1;P1;durP2;ratioP2;P2;SDS_P1;SDS_P2;PMS_P1;PMS_P2;Temp;Humidity;BMP_temperature;BMP_pressure;BME280_temperature;BME280_humidity;BME280_pressure;Samples;Min_cycle;Max_cycle;Signal;HPM_P1;HPM_P2
2021/01/04 00:02:22;;;;;;;29.77;19.60;;;;;;;1.60;76.21;96124.13;4955550;29;20052;-80
2021/01/04 00:05:13;;;;;;;33.53;22.40;;;;;;;1.59;75.90;96127.63;4955268;29;20581;-80
2021/01/04 00:08:15;;;;;;;31.40;20.52;;;;;;;1.59;75.85;96130.22;4955871;29;20163;-80
2021/01/04 00:10:59;;;;;;;28.05;19.17;;;;;;;1.58;75.67;96125.22;4955372;29;20051;-79
2021/01/04 00:13:36;;;;;;;31.38;19.55;;;;;;;1.56;75.80;96130.50;4955083;29;20051;-80
2021/01/04 00:16:12;;;;;;;26.83;17.50;;;;;;;1.57;76.12;96126.16;4955346;29;20047;-80
2021/01/04 00:18:44;;;;;;;28.05;17.85;;;;;;;1.56;75.65;96127.91;4955814;29;20061;-80
2021/01/04 00:21:22;;;;;;;29.10;19.15;;;;;;;1.54;75.63;96132.38;4955191;29;20421;-80
2021/01/04 00:24:01;;;;;;;24.08;16.95;;;;;;;1.52;75.52;96128.34;4955002;29;20043;-80
2021/01/04 00:26:35;;;;;;;25.15;16.80;;;;;;;1.50;75.28;96125.91;4956687;28;20047;-79
2021/01/04 00:29:02;;;;;;;27.15;16.75;;;;;;;1.51;75.73;96132.66;4959005;29;20051;-80
2021/01/04 00:31:32;;;;;;;24.92;16.33;;;;;;;1.49;75.30;96132.00;4958751;29;20051;-80
2021/01/04 00:34:05;;;;;;;25.95;17.73;;;;;;;1.46;75.46;96127.13;4958454;29;20055;-80
2021/01/04 00:36:34;;;;;;;26.83;17.98;;;;;;;1.42;75.43;96130.91;4959003;29;20051;-79
2021/01/04 00:39:26;;;;;;;27.55;17.17;;;;;;;1.41;75.27;96134.44;4958691;29;20051;-80
2021/01/04 00:42:02;;;;;;;28.65;18.48;;;;;;;1.42;75.23;96130.91;4958535;29;20058;-80
2021/01/04 00:44:41;;;;;;;31.42;19.58;;;;;;;1.39;75.21;96126.03;4958646;29;20051;-80
2021/01/04 00:47:13;;;;;;;29.90;18.88;;;;;;;1.38;75.20;96127.81;4958643;29;20055;-80
2021/01/04 00:49:47;;;;;;;31.17;18.75;;;;;;;1.38;75.31;96129.56;4958361;29;20073;-80
2021/01/04 00:52:28;;;;;;;27.08;18.30;;;;;;;1.39;75.16;96126.03;4958131;29;20051;-80
2021/01/04 00:55:08;;;;;;;26.27;17.20;;;;;;;1.36;74.55;96124.56;4958713;29;20151;-80
2021/01/04 00:58:09;;;;;;;30.48;19.05;;;;;;;1.34;74.73;96128.22;4958580;29;20510;-80
2021/01/04 01:00:42;;;;;;;26.38;17.17;;;;;;;1.34;75.13;96128.22;4956406;28;20047;-79
2021/01/04 01:03:26;;;;;;;29.05;17.83;;;;;;;1.34;75.16;96118.75;4956942;29;20053;-80
2021/01/04 01:06:02;;;;;;;28.52;18.15;;;;;;;1.31;74.77;96128.47;4956905;29;20540;-80
2021/01/04 01:08:32;;;;;;;31.05;19.27;;;;;;;1.28;75.27;96126.19;4957138;29;20055;-80
2021/01/04 01:11:02;;;;;;;39.97;24.30;;;;;;;1.24;75.41;96134.16;4956717;29;20051;-80
2021/01/04 01:13:50;;;;;;;53.58;28.20;;;;;;;1.24;75.26;96125.63;4956753;29;20514;-80
2021/01/04 01:16:30;;;;;;;53.70;28.38;;;;;;;1.23;75.04;96126.59;4956683;29;20568;-80
2021/01/04 01:19:09;;;;;;;39.38;23.38;;;;;;;1.21;75.72;96121.59;4956792;29;20426;-80
2021/01/04 01:21:37;;;;;;;36.50;23.20;;;;;;;1.21;75.51;96128.50;4956661;29;20113;-80
2021/01/04 01:24:05;;;;;;;34.65;20.65;;;;;;;1.20;75.62;96129.41;4956428;29;20048;-81
2021/01/04 01:26:58;;;;;;;31.83;19.77;;;;;;;1.19;75.45;96126.03;4956706;29;20050;-80
2021/01/04 01:29:38;;;;;;;;;;;;;;;1.26;75.30;96130.66;4945319;29;20051;-79
2021/01/04 01:32:34;;;;;;;31.83;19.20;;;;;;;1.21;75.05;96134.44;4956494;29;19923;-80
2021/01/04 01:35:18;;;;;;;34.60;21.52;;;;;;;1.19;75.10;96136.31;4956620;29;20051;-80
2021/01/04 01:38:15;;;;;;;32.00;19.88;;;;;;;1.17;75.36;96137.41;4956461;28;20047;-80
2021/01/04 01:41:14;;;;;;;32.55;20.67;;;;;;;1.16;75.14;96141.75;4955982;29;20070;-80
2021/01/04 01:44:02;;;;;;;31.23;18.95;;;;;;;1.15;75.46;96145.25;4956367;29;20059;-80
2021/01/04 01:46:37;;;;;;;31.13;19.65;;;;;;;1.14;75.25;96143.63;4956295;29;20053;-80
2021/01/04 01:49:19;;;;;;;31.55;19.50;;;;;;;1.13;75.23;96147.13;4955952;29;20051;-80
2021/01/04 01:52:05;;;;;;;33.17;20.38;;;;;;;1.14;75.13;96138.50;4955653;29;20399;-80
2021/01/04 01:54:54;;;;;;;31.48;19.60;;;;;;;1.17;75.69;96139.97;4954947;29;20626;-80
2021/01/04 01:57:51;;;;;;;28.67;18.95;;;;;;;1.16;75.28;96141.75;4946789;29;20091;-80
2021/01/04 02:00:23;;;;;;;32.63;20.60;;;;;;;1.17;75.25;96147.69;4938787;29;20502;-80
2021/01/04 02:02:59;;;;;;;31.52;19.73;;;;;;;1.17;75.41;96147.69;4955911;29;20051;-79
2021/01/04 02:05:36;;;;;;;28.98;18.35;;;;;;;1.16;75.36;96146.03;4957092;29;20055;-80
2021/01/04 02:08:06;;;;;;;32.22;20.38;;;;;;;1.15;75.18;96152.13;4956864;29;20130;-79
2021/01/04 02:10:35;;;;;;;29.80;18.27;;;;;;;1.14;75.01;96150.53;4956764;29;20054;-80
2021/01/04 02:13:09;;;;;;;32.83;20.60;;;;;;;1.13;75.17;96142.00;4956966;29;20053;-80
2021/01/04 02:15:52;;;;;;;30.00;18.73;;;;;;;1.12;74.98;96147.28;4956815;29;20057;-80
2021/01/04 02:18:35;;;;;;;32.90;20.35;;;;;;;1.10;74.98;96142.28;4956120;29;20058;-80
2021/01/04 02:21:47;;;;;;;31.75;20.25;;;;;;;1.11;75.43;96138.75;4956743;29;20134;-80
2021/01/04 02:24:16;;;;;;;27.38;17.40;;;;;;;1.10;75.06;96144.84;4938121;28;20164;-80
2021/01/04 02:26:49;;;;;;;29.17;17.05;;;;;;;1.10;75.08;96142.28;4956188;29;20050;-80
2021/01/04 02:29:19;;;;;;;28.85;18.60;;;;;;;1.09;75.23;96148.34;4956495;28;20138;-80
2021/01/04 02:31:50;;;;;;;30.77;18.77;;;;;;;1.11;75.20;96143.06;4956430;29;20498;-80
2021/01/04 02:34:24;;;;;;;32.13;18.88;;;;;;;1.13;75.58;96152.25;4956412;28;20078;-80
2021/01/04 02:36:55;;;;;;;30.58;18.77;;;;;;;1.18;75.20;96150.13;4956228;28;20078;-80
2021/01/04 02:39:30;;;;;;;31.30;18.73;;;;;;;1.16;75.20;96152.00;4956217;29;20102;-80
2021/01/04 02:42:05;;;;;;;31.30;19.15;;;;;;;1.20;75.15;96152.53;4956265;29;20485;-80
2021/01/04 02:44:33;;;;;;;31.33;19.10;;;;;;;1.23;74.86;96152.28;4956655;29;20409;-80
2021/01/04 02:47:26;;;;;;;31.50;19.25;;;;;;;1.23;75.10;96153.09;4956054;29;20047;-81
2021/01/04 02:50:07;;;;;;;31.88;18.38;;;;;;;1.24;74.66;96149.56;4950598;28;20076;-80
2021/01/04 02:52:50;;;;;;;31.73;18.65;;;;;;;1.22;74.81;96146.34;4955104;29;20055;-80
2021/01/04 02:55:26;;;;;;;29.88;18.67;;;;;;;1.27;74.95;96157.94;4955315;29;20055;-79
2021/01/04 02:57:59;;;;;;;28.17;19.05;;;;;;;1.30;75.25;96152.56;4955512;29;20517;-79
2021/01/04 03:00:27;;;;;;;30.15;18.38;;;;;;;1.33;74.93;96149.72;4955389;29;20079;-79
2021/01/04 03:02:59;;;;;;;33.25;17.95;;;;;;;1.35;74.76;96150.38;4955437;28;20047;-80
2021/01/04 03:05:26;;;;;;;30.65;18.85;;;;;;;1.37;74.63;96153.63;4955198;28;20102;-80
2021/01/04 03:07:57;;;;;;;31.67;18.23;;;;;;;1.38;74.66;96148.38;4954422;29;20047;-80
2021/01/04 03:10:28;;;;;;;32.17;18.05;;;;;;;1.41;74.57;96145.50;4954682;29;20074;-80
2021/01/04 03:13:07;;;;;;;34.58;18.17;;;;;;;1.44;74.44;96144.44;4955175;29;20425;-80
2021/01/04 03:15:42;;;;;;;33.63;18.83;;;;;;;1.41;74.12;96147.28;4975957;23;20079;-81
2021/01/04 03:18:17;;;;;;;30.83;18.90;;;;;;;1.35;73.80;96140.09;4973064;29;20047;-81
2021/01/04 03:20:45;;;;;;;32.70;19.67;;;;;;;1.33;74.18;96142.81;4972393;29;20057;-81
2021/01/04 03:23:12;;;;;;;30.80;20.17;;;;;;;1.34;74.09;96144.44;4973016;29;20063;-81
2021/01/04 03:25:45;;;;;;;29.50;17.88;;;;;;;1.34;74.49;96141.06;4973236;29;20066;-81
2021/01/04 03:28:21;;;;;;;32.50;20.05;;;;;;;1.35;74.15;96146.06;4972857;29;20062;-82
2021/01/04 03:30:48;;;;;;;30.50;18.83;;;;;;;1.36;74.06;96139.19;4971728;29;20058;-81
2021/01/04 03:33:15;;;;;;;31.92;19.40;;;;;;;1.35;74.18;96140.91;4973018;28;20099;-81
2021/01/04 03:35:41;;;;;;;29.02;18.15;;;;;;;1.34;74.38;96143.63;4972738;29;20065;-81
2021/01/04 03:38:08;;;;;;;26.98;16.88;;;;;;;1.34;73.85;96148.78;4973876;29;20058;-82
2021/01/04 03:40:34;;;;;;;27.13;17.92;;;;;;;1.31;74.29;96149.03;4973449;29;20079;-81
2021/01/04 03:43:02;;;;;;;30.13;18.17;;;;;;;1.35;74.23;96145.25;4974848;29;20054;-81
2021/01/04 03:45:29;;;;;;;28.95;18.35;;;;;;;1.35;73.45;96137.53;4973281;29;20075;-80
2021/01/04 03:47:55;;;;;;;30.92;18.15;;;;;;;1.35;73.69;96140.91;4973969;29;20035;-82
2021/01/04 03:50:23;;;;;;;28.30;16.90;;;;;;;1.38;73.89;96139.84;4973951;28;20058;-82
2021/01/04 03:52:49;;;;;;;31.17;18.67;;;;;;;1.38;73.59;96139.84;4974320;29;20058;-81
2021/01/04 03:55:17;;;;;;;28.92;17.80;;;;;;;1.39;73.67;96141.47;4973553;29;20035;-81
2021/01/04 03:57:44;;;;;;;27.77;17.58;;;;;;;1.42;73.80;96138.59;4974453;29;20051;-81
2021/01/04 04:00:15;;;;;;;27.05;16.77;;;;;;;1.42;73.52;96136.03;4974174;28;20059;-81
2021/01/04 04:02:43;;;;;;;30.88;18.30;;;;;;;1.44;73.80;96134.16;4976908;29;20057;-81
2021/01/04 04:05:13;;;;;;;28.00;18.67;;;;;;;1.47;73.40;96138.22;4977249;28;20054;-81
2021/01/04 04:07:40;;;;;;;29.15;17.50;;;;;;;1.47;73.37;96136.47;4977160;29;20043;-81
2021/01/04 04:10:08;;;;;;;27.88;17.92;;;;;;;1.47;73.26;96138.22;4977136;29;20062;-81
2021/01/04 04:12:34;;;;;;;30.70;18.58;;;;;;;1.46;73.29;96139.97;4977527;29;20043;-81
2021/01/04 04:15:01;;;;;;;29.50;18.05;;;;;;;1.42;73.26;96136.88;4977545;28;20062;-82
2021/01/04 04:17:29;;;;;;;29.80;17.63;;;;;;;1.41;73.56;96139.56;4978269;29;20062;-81
2021/01/04 04:19:56;;;;;;;30.13;18.58;;;;;;;1.40;73.32;96143.91;4977562;29;20051;-81
2021/01/04 04:22:23;;;;;;;32.75;19.23;;;;;;;1.39;73.43;96144.03;4976324;28;20063;-82
2021/01/04 04:24:49;;;;;;;29.20;19.10;;;;;;;1.36;73.64;96146.88;4976988;29;20103;-82
2021/01/04 04:27:17;;;;;;;32.72;20.02;;;;;;;1.31;73.65;96151.59;4977557;29;20051;-81
2021/01/04 04:29:45;;;;;;;37.10;22.05;;;;;;;1.28;73.80;96155.25;4977643;29;20047;-81
2021/01/04 04:32:12;;;;;;;35.25;21.17;;;;;;;1.28;73.62;96152.69;4975687;29;20055;-82
2021/01/04 04:34:40;;;;;;;35.30;19.90;;;;;;;1.30;73.96;96152.56;4976626;29;20054;-81
2021/01/04 04:37:07;;;;;;;37.38;20.77;;;;;;;1.28;74.51;96150.13;4975395;29;20055;-81
2021/01/04 04:39:34;;;;;;;34.92;21.15;;;;;;;1.29;74.37;96153.50;4976535;29;20063;-82
2021/01/04 04:42:04;;;;;;;31.05;19.42;;;;;;;1.27;74.34;96150.25;4976367;28;20051;-84
2021/01/04 04:44:37;;;;;;;32.28;19.90;;;;;;;1.27;74.10;96153.66;4976974;29;20055;-81
2021/01/04 04:47:19;;;;;;;34.05;19.27;;;;;;;1.25;74.64;96160.69;4975636;29;20070;-82
2021/01/04 04:50:01;;;;;;;34.45;19.90;;;;;;;1.27;74.43;96160.53;4975539;28;20052;-81
2021/01/04 04:52:58;;;;;;;24.52;15.30;;;;;;;1.28;74.14;96159.59;4976453;29;20061;-82
2021/01/04 04:55:52;;;;;;;30.67;18.90;;;;;;;1.25;74.09;96155.53;4977803;29;20099;-80
2021/01/04 04:58:36;;;;;;;32.00;19.52;;;;;;;1.24;74.11;96159.03;4979749;28;20055;-81
2021/01/04 05:01:12;;;;;;;32.63;18.98;;;;;;;1.20;74.14;96163.66;4976824;29;20049;-81
2021/01/04 05:03:54;;;;;;;36.08;21.45;;;;;;;1.17;74.20;96169.03;4974769;28;20059;-82
2021/01/04 05:06:37;;;;;;;33.47;19.73;;;;;;;1.15;74.03;96160.66;4975275;29;20090;-81
2021/01/04 05:09:31;;;;;;;34.90;20.60;;;;;;;1.13;74.18;96167.69;4975742;29;20057;-80
2021/01/04 05:12:07;;;;;;;34.30;20.63;;;;;;;1.13;74.33;96167.69;4974021;28;20055;-82
2021/01/04 05:14:40;;;;;;;33.08;19.20;;;;;;;1.11;74.69;96167.00;4974116;29;20051;-82
2021/01/04 05:17:27;;;;;;;32.15;18.30;;;;;;;1.12;74.74;96171.22;4973964;29;20047;-80
2021/01/04 05:20:09;;;;;;;32.70;18.85;;;;;;;1.13;74.81;96166.88;4974948;29;20047;-81
2021/01/04 05:23:07;;;;;;;33.63;19.90;;;;;;;1.13;74.54;96172.81;4979910;28;20078;-81
2021/01/04 05:26:08;;;;;;;32.63;18.73;;;;;;;1.12;74.51;96166.06;4981225;28;20042;-80
2021/01/04 05:29:02;;;;;;;31.05;18.63;;;;;;;1.11;74.21;96167.00;4981162;28;20053;-80
2021/01/04 05:31:48;;;;;;;30.00;18.13;;;;;;;1.13;74.68;96165.13;4978856;28;20051;-81
2021/01/04 05:34:22;;;;;;;29.90;18.58;;;;;;;1.14;74.53;96169.31;4974771;28;20051;-81
2021/01/04 05:37:03;;;;;;;32.15;19.42;;;;;;;1.13;74.73;96170.25;4976394;28;20063;-82
2021/01/04 05:39:46;;;;;;;31.88;18.27;;;;;;;1.13;74.51;96177.16;4976883;29;20051;-82
2021/01/04 05:42:37;;;;;;;33.17;19.77;;;;;;;1.11;74.13;96169.56;4977363;29;20582;-80
2021/01/04 05:45:13;;;;;;;35.92;20.77;;;;;;;1.09;74.49;96171.47;4975878;28;20077;-82
2021/01/04 05:47:46;;;;;;;34.58;19.40;;;;;;;1.08;74.54;96174.97;4975318;29;20043;-82
2021/01/04 05:50:24;;;;;;;31.83;19.48;;;;;;;1.08;73.98;96169.03;4974036;29;20057;-81
2021/01/04 05:52:53;;;;;;;31.65;18.42;;;;;;;1.06;74.26;96168.38;4975438;29;20047;-81
2021/01/04 05:55:21;;;;;;;32.08;20.48;;;;;;;1.06;74.09;96171.72;4977004;29;20139;-81
2021/01/04 05:57:50;;;;;;;30.38;17.45;;;;;;;1.08;74.28;96169.84;4976143;29;20047;-82
2021/01/04 06:00:33;;;;;;;32.72;19.25;;;;;;;1.07;73.84;96168.22;4975086;29;20059;-80
2021/01/04 06:03:21;;;;;;;31.60;20.23;;;;;;;1.07;73.89;96168.22;4974365;29;20107;-80
2021/01/04 06:05:50;;;;;;;32.63;18.35;;;;;;;1.05;73.85;96169.28;4972293;28;20059;-82
2021/01/04 06:08:22;;;;;;;26.85;17.67;;;;;;;1.05;74.01;96167.56;4974611;29;20114;-82
2021/01/04 06:10:53;;;;;;;34.90;19.73;;;;;;;1.05;73.90;96167.56;4972374;29;20047;-81
2021/01/04 06:13:21;;;;;;;32.35;18.08;;;;;;;1.07;74.18;96165.63;4972971;29;20069;-82
2021/01/04 06:15:48;;;;;;;30.98;18.45;;;;;;;1.08;73.86;96164.72;4972537;28;20140;-82
2021/01/04 06:18:25;;;;;;;34.42;19.15;;;;;;;1.08;74.03;96172.41;4973512;29;20169;-82
2021/01/04 06:21:14;;;;;;;32.70;19.25;;;;;;;1.08;74.10;96167.28;4972899;29;20054;-82
2021/01/04 06:23:41;;;;;;;33.10;19.30;;;;;;;1.08;73.87;96167.28;4971701;28;20115;-81
2021/01/04 06:26:14;;;;;;;32.25;19.58;;;;;;;1.04;73.80;96168.50;4972741;29;20043;-82
2021/01/04 06:28:46;;;;;;;29.15;18.58;;;;;;;1.03;73.94;96169.44;4972897;29;20057;-82
2021/01/04 06:31:16;;;;;;;31.55;20.65;;;;;;;1.03;73.86;96161.75;4972500;29;20062;-82
2021/01/04 06:33:43;;;;;;;30.88;19.60;;;;;;;1.03;74.18;96164.31;4973804;28;20065;-82
2021/01/04 06:36:17;;;;;;;33.15;20.00;;;;;;;1.03;74.44;96169.44;4973832;29;20047;-81
2021/01/04 06:38:44;;;;;;;37.13;20.92;;;;;;;1.02;74.48;96171.19;4972845;29;20059;-81
2021/01/04 06:41:16;;;;;;;33.70;19.90;;;;;;;1.01;74.58;96179.84;4972462;29;20058;-82
2021/01/04 06:43:43;;;;;;;30.80;20.30;;;;;;;1.02;74.41;96178.06;4973387;29;20061;-81
2021/01/04 06:46:24;;;;;;;30.58;19.17;;;;;;;1.02;74.42;96175.50;4977776;29;20141;-83
2021/01/04 06:49:02;;;;;;;33.50;19.05;;;;;;;1.03;75.67;96180.53;4973800;28;20062;-82
2021/01/04 06:52:15;;;;;;;30.13;19.00;;;;;;;1.08;75.27;96180.13;4977910;28;20054;-82
2021/01/04 06:55:12;;;;;;;31.85;18.40;;;;;;;1.08;74.25;96174.97;4977712;28;20051;-81
2021/01/04 06:58:12;;;;;;;31.67;18.98;;;;;;;1.08;74.18;96179.31;4977074;29;20047;-81
2021/01/04 07:01:02;;;;;;;32.50;19.30;;;;;;;1.12;74.55;96181.47;4958218;29;20055;-81
2021/01/04 07:03:54;;;;;;;31.10;18.40;;;;;;;1.16;74.50;96179.44;4971409;29;20051;-81
2021/01/04 07:06:55;;;;;;;32.60;20.10;;;;;;;1.17;74.61;96184.44;4952231;28;20052;-80
2021/01/04 07:09:49;;;;;;;30.80;18.05;;;;;;;1.17;74.05;96181.88;4950355;29;20051;-81
2021/01/04 07:12:23;;;;;;;28.58;18.60;;;;;;;1.18;74.52;96188.66;4952362;29;20086;-81
2021/01/04 07:15:19;;;;;;;27.95;18.35;;;;;;;1.19;74.59;96177.44;4957725;28;20502;-81
2021/01/04 07:18:12;;;;;;;31.10;18.63;;;;;;;1.21;74.35;96190.94;4952093;29;20587;-81
2021/01/04 07:21:13;;;;;;;28.65;17.98;;;;;;;1.19;73.89;96192.84;4952893;28;20059;-81
2021/01/04 07:23:48;;;;;;;33.03;17.83;;;;;;;1.18;74.35;96188.66;4954377;28;20059;-81
2021/01/04 07:26:25;;;;;;;31.35;17.85;;;;;;;1.17;74.07;96196.50;4953581;29;20059;-81
2021/01/04 07:29:12;;;;;;;30.73;19.10;;;;;;;1.18;73.65;96186.09;4950543;29;20097;-80
2021/01/04 07:31:45;;;;;;;30.75;18.15;;;;;;;1.19;73.65;96192.03;4944744;29;20046;-81
2021/01/04 07:34:20;;;;;;;27.65;18.13;;;;;;;1.16;73.36;96185.41;4963124;29;20505;-81
2021/01/04 07:36:53;;;;;;;28.60;16.35;;;;;;;1.18;73.41;96185.25;4958273;29;20069;-81
2021/01/04 07:39:33;;;;;;;26.05;16.20;;;;;;;1.20;73.40;96191.06;4962473;29;20034;-81
2021/01/04 07:42:26;;;;;;;25.67;14.95;;;;;;;1.23;72.80;96189.06;4956253;29;20421;-80
2021/01/04 07:45:01;;;;;;;;;;;;;;;1.27;73.09;96193.91;4954629;29;20502;-79
2021/01/04 07:48:13;;;;;;;22.65;14.13;;;;;;;1.28;73.04;96191.22;4957756;29;19985;-82
2021/01/04 07:50:59;;;;;;;22.08;13.25;;;;;;;1.27;72.31;96191.34;4955425;29;20057;-81
2021/01/04 07:54:09;;;;;;;22.05;13.68;;;;;;;1.26;72.05;96200.81;4954537;29;20062;-80
2021/01/04 07:57:02;;;;;;;22.13;14.27;;;;;;;1.24;71.75;96200.94;4954407;29;20506;-81
2021/01/04 07:59:59;;;;;;;18.02;12.73;;;;;;;1.23;71.71;96196.78;4954228;29;20058;-80
2021/01/04 08:02:52;;;;;;;20.85;13.20;;;;;;;1.20;71.52;96198.78;4955703;29;20122;-80
2021/01/04 08:06:05;;;;;;;18.50;12.25;;;;;;;1.18;71.89;96195.53;4955740;29;20063;-81
2021/01/04 08:08:40;;;;;;;22.88;13.50;;;;;;;1.16;71.75;96193.13;4948846;28;20054;-80
2021/01/04 08:11:46;;;;;;;22.48;15.30;;;;;;;1.11;72.09;96205.53;4956273;29;20051;-81
2021/01/04 08:14:40;;;;;;;21.40;13.73;;;;;;;1.08;71.95;96205.00;4954950;29;20506;-81
2021/01/04 08:17:14;;;;;;;22.90;13.48;;;;;;;1.05;72.15;96206.09;4955111;29;20509;-81
2021/01/04 08:19:44;;;;;;;22.42;13.50;;;;;;;1.04;71.85;96209.59;4955446;29;20052;-81
2021/01/04 08:22:24;;;;;;;18.58;13.30;;;;;;;1.05;71.36;96213.78;4953999;29;20055;-80
2021/01/04 08:25:01;;;;;;;15.48;11.88;;;;;;;1.05;71.22;96211.22;4954168;29;20057;-81
2021/01/04 08:27:36;;;;;;;19.10;12.85;;;;;;;1.04;71.09;96212.16;4954443;29;20051;-80
2021/01/04 08:30:14;;;;;;;21.52;13.52;;;;;;;1.05;71.30;96211.22;4954403;29;20059;-80
2021/01/04 08:32:48;;;;;;;18.00;12.68;;;;;;;1.07;70.99;96209.31;4954923;29;20047;-81
2021/01/04 08:35:30;;;;;;;18.98;13.45;;;;;;;1.10;71.35;96209.06;4955722;29;20118;-81
2021/01/04 08:38:13;;;;;;;24.17;14.18;;;;;;;1.13;71.12;96213.13;4954954;29;20058;-81
2021/01/04 08:40:52;;;;;;;22.38;15.02;;;;;;;1.14;70.71;96215.56;4954986;29;20054;-81
2021/01/04 08:43:35;;;;;;;22.67;13.65;;;;;;;1.17;70.80;96220.41;4955361;29;20055;-81
2021/01/04 08:46:13;;;;;;;18.60;13.75;;;;;;;1.19;71.01;96218.53;4957517;29;20059;-81
2021/01/04 08:48:40;;;;;;;23.23;15.02;;;;;;;1.23;71.15;96226.81;4959404;29;20417;-81
2021/01/04 08:51:10;;;;;;;22.08;14.82;;;;;;;1.24;70.92;96224.06;4958357;29;20059;-80
2021/01/04 08:53:37;;;;;;;19.20;13.10;;;;;;;1.25;70.59;96227.47;4959440;29;20047;-81
2021/01/04 08:56:07;;;;;;;19.80;13.40;;;;;;;1.27;70.46;96229.91;4958414;29;20047;-81
2021/01/04 08:58:39;;;;;;;28.85;14.05;;;;;;;1.26;70.53;96233.44;4959273;29;20051;-81
2021/01/04 09:01:16;;;;;;;19.50;13.80;;;;;;;1.27;70.81;96229.91;4958098;29;20058;-79
2021/01/04 09:03:43;;;;;;;17.73;12.63;;;;;;;1.28;70.80;96231.53;4958683;29;20051;-81
2021/01/04 09:06:26;;;;;;;22.38;14.23;;;;;;;1.27;70.32;96229.91;4958009;29;20055;-80
2021/01/04 09:08:56;;;;;;;19.77;13.25;;;;;;;1.23;70.07;96222.47;4954757;29;20047;-79
2021/01/04 09:11:24;;;;;;;19.42;13.73;;;;;;;1.20;70.44;96227.03;4961811;29;20055;-81
2021/01/04 09:13:51;;;;;;;19.38;13.70;;;;;;;1.20;70.65;96225.31;4974750;29;20065;-81
2021/01/04 09:16:36;;;;;;;19.02;12.52;;;;;;;1.21;70.01;96224.34;4997531;23;20592;-80
2021/01/04 09:19:10;;;;;;;19.27;12.55;;;;;;;1.23;70.00;96230.19;4959096;28;20406;-81
2021/01/04 09:21:39;;;;;;;18.98;13.27;;;;;;;1.26;70.13;96230.84;4959196;29;20051;-81
2021/01/04 09:24:19;;;;;;;22.58;14.30;;;;;;;1.30;70.24;96229.66;4959424;29;20148;-80
2021/01/04 09:26:47;;;;;;;23.95;13.15;;;;;;;1.34;70.37;96229.25;4959777;28;20059;-81
2021/01/04 09:29:23;;;;;;;22.52;13.20;;;;;;;1.37;70.13;96225.59;4958245;28;20051;-80
2021/01/04 09:31:53;;;;;;;21.90;13.00;;;;;;;1.38;69.81;96229.81;4958565;28;20117;-80
2021/01/04 09:34:21;;;;;;;20.30;12.63;;;;;;;1.37;69.75;96230.72;4957564;28;20501;-80
2021/01/04 09:36:48;;;;;;;21.10;13.50;;;;;;;1.36;69.98;96224.78;4957175;29;20048;-80
2021/01/04 09:39:25;;;;;;;27.15;13.23;;;;;;;1.37;70.14;96217.88;4957341;28;20055;-80
2021/01/04 09:41:57;;;;;;;22.80;12.82;;;;;;;1.40;69.80;96215.03;4957214;29;20055;-79
2021/01/04 09:44:24;;;;;;;20.25;13.55;;;;;;;1.43;70.12;96218.16;4957132;29;20055;-79
2021/01/04 09:46:55;;;;;;;20.38;12.23;;;;;;;1.46;70.01;96208.56;4957100;29;20055;-79
2021/01/04 09:49:27;;;;;;;20.35;12.82;;;;;;;1.49;69.85;96213.41;4956876;29;20134;-79
2021/01/04 09:52:00;;;;;;;24.80;13.13;;;;;;;1.51;69.57;96216.66;4956827;29;20429;-79
2021/01/04 09:54:36;;;;;;;28.55;13.82;;;;;;;1.50;69.76;96218.44;4957074;29;20054;-80
2021/01/04 09:57:07;;;;;;;25.10;12.65;;;;;;;1.49;69.69;96227.09;4957559;29;20058;-80
2021/01/04 09:59:41;;;;;;;19.55;13.27;;;;;;;1.47;69.56;96223.03;4957355;28;20047;-81
2021/01/04 10:02:17;;;;;;;22.48;12.57;;;;;;;1.43;69.65;96227.63;4957394;29;20449;-80
2021/01/04 10:04:44;;;;;;;31.52;14.10;;;;;;;1.41;69.44;96220.03;4957116;29;20063;-79
2021/01/04 10:07:16;;;;;;;16.90;11.18;;;;;;;1.40;69.37;96220.16;4957877;29;20059;-80
2021/01/04 10:09:52;;;;;;;24.63;11.65;;;;;;;1.39;69.18;96213.41;4959243;28;20085;-80
2021/01/04 10:12:23;;;;;;;19.23;11.85;;;;;;;1.39;69.65;96216.00;4958906;28;20065;-80
2021/01/04 10:15:01;;;;;;;17.42;12.13;;;;;;;1.36;69.24;96206.78;4958786;29;20052;-81
2021/01/04 10:17:36;;;;;;;18.23;12.88;;;;;;;1.35;69.24;96206.91;4958808;29;20051;-81
2021/01/04 10:20:15;;;;;;;20.13;12.57;;;;;;;1.32;69.55;96208.00;4958126;29;20059;-81
2021/01/04 10:22:46;;;;;;;16.73;12.25;;;;;;;1.30;69.50;96207.31;4957696;29;20070;-80
2021/01/04 10:25:19;;;;;;;18.85;12.75;;;;;;;1.31;69.91;96203.00;4958056;29;20047;-80
2021/01/04 10:27:51;;;;;;;21.33;13.50;;;;;;;1.31;69.63;96205.56;4957924;29;20051;-80
2021/01/04 10:30:26;;;;;;;18.58;12.00;;;;;;;1.31;69.78;96196.13;4957138;29;20061;-80
2021/01/04 10:33:09;;;;;;;18.83;12.93;;;;;;;1.32;69.62;96196.91;4957332;29;20062;-80
2021/01/04 10:35:36;;;;;;;22.88;14.15;;;;;;;1.33;69.54;96185.69;4957368;28;20065;-80
2021/01/04 10:38:11;;;;;;;19.67;12.35;;;;;;;1.34;69.66;96195.03;4956500;29;20517;-80
2021/01/04 10:40:45;;;;;;;19.80;12.52;;;;;;;1.35;69.37;96196.66;4956199;29;20066;-79
2021/01/04 10:43:17;;;;;;;19.70;12.82;;;;;;;1.32;69.61;96192.59;4956403;29;20055;-80
2021/01/04 10:46:15;;;;;;;18.38;12.57;;;;;;;1.31;69.60;96195.28;4956752;29;20132;-79
2021/01/04 10:48:57;;;;;;;19.80;13.40;;;;;;;1.30;69.84;96199.63;4956055;29;20051;-80
2021/01/04 10:51:25;;;;;;;18.25;12.02;;;;;;;1.27;69.75;96188.78;4956153;29;20130;-80
2021/01/04 10:53:52;;;;;;;20.08;12.65;;;;;;;1.26;69.75;96187.16;4956582;29;20070;-80
2021/01/04 10:56:34;;;;;;;21.50;13.25;;;;;;;1.23;69.27;96185.69;4956631;29;20051;-80
2021/01/04 10:59:11;;;;;;;24.75;14.45;;;;;;;1.23;69.86;96183.94;4956926;29;20062;-80
2021/01/04 11:01:42;;;;;;;28.13;14.88;;;;;;;1.23;69.94;96183.94;4956781;29;20058;-80
2021/01/04 11:04:11;;;;;;;18.45;11.98;;;;;;;1.23;69.84;96178.78;4957019;29;20133;-79
2021/01/04 11:06:41;;;;;;;20.05;12.98;;;;;;;1.20;69.43;96181.63;4956370;29;20114;-79
2021/01/04 11:09:13;;;;;;;18.73;12.90;;;;;;;1.15;69.52;96178.63;4955879;29;20082;-80
2021/01/04 11:11:43;;;;;;;18.25;13.13;;;;;;;1.14;69.68;96186.50;4959976;28;20098;-79
2021/01/04 11:14:13;;;;;;;18.30;13.07;;;;;;;1.11;69.70;96179.84;4976209;28;20054;-79
2021/01/04 11:16:52;;;;;;;22.52;14.50;;;;;;;1.10;69.75;96178.22;4974522;28;20105;-79
2021/01/04 11:19:27;;;;;;;21.65;15.02;;;;;;;1.11;69.79;96176.47;4974331;28;20555;-79
2021/01/04 11:21:54;;;;;;;23.92;15.23;;;;;;;1.10;69.80;96177.44;4937623;29;20048;-79
2021/01/04 11:24:20;;;;;;;25.17;15.07;;;;;;;1.08;70.06;96174.97;4958348;28;20055;-79
2021/01/04 11:26:48;;;;;;;22.65;15.60;;;;;;;1.08;69.94;96167.28;4936366;29;20051;-79
2021/01/04 11:29:15;;;;;;;23.70;16.05;;;;;;;1.08;69.70;96162.13;4937823;29;20133;-81
2021/01/04 11:31:49;;;;;;;25.05;16.23;;;;;;;1.07;69.75;96163.06;4949900;28;20059;-79
2021/01/04 11:34:16;;;;;;;24.05;16.75;;;;;;;1.03;70.17;96154.84;4955205;29;20090;-79
2021/01/04 11:36:43;;;;;;;23.35;15.75;;;;;;;1.02;70.40;96149.81;4954955;28;20092;-78
2021/01/04 11:39:10;;;;;;;23.58;15.57;;;;;;;1.04;70.57;96158.22;4955126;29;20047;-79
2021/01/04 11:41:36;;;;;;;21.80;14.93;;;;;;;1.06;70.69;96155.53;4954877;29;20528;-79
2021/01/04 11:44:04;;;;;;;24.25;16.60;;;;;;;1.07;70.65;96159.69;4954941;29;20047;-79
2021/01/04 11:46:31;;;;;;;24.65;16.67;;;;;;;1.09;71.33;96158.63;4954856;28;20454;-79
2021/01/04 11:48:59;;;;;;;28.83;18.73;;;;;;;1.12;70.88;96148.09;4954786;29;20051;-80
2021/01/04 11:51:27;;;;;;;29.63;20.75;;;;;;;1.12;70.66;96140.38;4957862;28;20062;-79
2021/01/04 11:53:54;;;;;;;30.92;19.42;;;;;;;1.08;70.56;96149.28;4977994;28;20099;-79
2021/01/04 11:56:23;;;;;;;30.85;19.40;;;;;;;1.10;70.73;96139.69;4975015;28;20047;-80
2021/01/04 11:58:50;;;;;;;27.42;17.98;;;;;;;1.08;71.05;96141.59;4973789;29;20058;-79
2021/01/04 12:01:17;;;;;;;31.33;20.27;;;;;;;1.09;71.04;96135.50;4976996;28;20070;-80
2021/01/04 12:03:44;;;;;;;30.13;19.65;;;;;;;1.09;71.05;96130.34;4977726;29;20104;-79
2021/01/04 12:06:13;;;;;;;27.90;18.40;;;;;;;1.09;70.98;96129.56;4977655;29;20055;-81
2021/01/04 12:08:40;;;;;;;30.88;19.17;;;;;;;1.08;70.92;96123.59;4978231;28;20111;-81
2021/01/04 12:11:07;;;;;;;27.25;18.30;;;;;;;1.04;71.01;96127.38;4978986;28;20039;-80